sensor_id;sensor_type;location;lat;lon;timestamp;P1;durP1;ratioP1;P2;durP2;ratioP2
5827;SDS011;42583;50.240;8.444;2024-01-30T00:06:25;7.85;;;3.45;;
5827;SDS011;42583;50.240;8.444;2024-01-30T00:21:25;8.65;;;3.90;;
5827;SDS011;42583;50.240;8.444;2024-01-30T00:36:26;6.45;;;3.30;;
5827;SDS011;42583;50.240;8.444;2024-01-30T00:51:29;8.52;;;3.72;;
5827;SDS011;42583;50.240;8.444;2024-01-30T01:06:30;10.60;;;3.78;;
5827;SDS011;42583;50.240;8.444;2024-01-30T01:21:31;8.68;;;3.90;;
5827;SDS011;42583;50.240;8.444;2024-01-30T01:36:31;7.30;;;3.75;;
5827;SDS011;42583;50.240;8.444;2024-01-30T01:51:33;9.10;;;4.00;;
5827;SDS011;42583;50.240;8.444;2024-01-30T02:06:35;6.50;;;3.78;;
5827;SDS011;42583;50.240;8.444;2024-01-30T02:21:36;11.10;;;4.30;;
5827;SDS011;42583;50.240;8.444;2024-01-30T02:36:37;7.97;;;4.13;;
5827;SDS011;42583;50.240;8.444;2024-01-30T02:51:38;8.60;;;4.40;;
5827;SDS011;42583;50.240;8.444;2024-01-30T03:06:38;10.30;;;4.30;;
5827;SDS011;42583;50.240;8.444;2024-01-30T03:21:39;12.77;;;5.00;;
5827;SDS011;42583;50.240;8.444;2024-01-30T03:36:39;12.07;;;5.30;;
5827;SDS011;42583;50.240;8.444;2024-01-30T03:51:40;12.18;;;5.10;;
5827;SDS011;42583;50.240;8.444;2024-01-30T04:06:40;11.32;;;4.47;;
5827;SDS011;42583;50.240;8.444;2024-01-30T04:21:41;10.57;;;4.47;;
5827;SDS011;42583;50.240;8.444;2024-01-30T04:36:43;9.73;;;4.30;;
5827;SDS011;42583;50.240;8.444;2024-01-30T04:51:45;9.63;;;4.40;;
5827;SDS011;42583;50.240;8.444;2024-01-30T05:06:45;9.50;;;4.30;;
5827;SDS011;42583;50.240;8.444;2024-01-30T05:21:46;9.32;;;4.50;;
5827;SDS011;42583;50.240;8.444;2024-01-30T05:36:47;8.57;;;4.30;;
5827;SDS011;42583;50.240;8.444;2024-01-30T05:51:47;12.25;;;4.40;;
5827;SDS011;42583;50.240;8.444;2024-01-30T06:06:48;8.95;;;4.22;;
5827;SDS011;42583;50.240;8.444;2024-01-30T06:21:49;7.55;;;3.97;;
5827;SDS011;42583;50.240;8.444;2024-01-30T06:36:49;11.23;;;4.30;;
5827;SDS011;42583;50.240;8.444;2024-01-30T06:51:50;7.47;;;4.07;;
5827;SDS011;42583;50.240;8.444;2024-01-30T07:06:50;9.30;;;4.07;;
5827;SDS011;42583;50.240;8.444;2024-01-30T07:21:53;8.65;;;3.90;;
5827;SDS011;42583;50.240;8.444;2024-01-30T07:36:53;9.57;;;4.30;;
5827;SDS011;42583;50.240;8.444;2024-01-30T07:51:54;8.73;;;4.18;;
5827;SDS011;42583;50.240;8.444;2024-01-30T08:06:56;8.88;;;3.85;;
5827;SDS011;42583;50.240;8.444;2024-01-30T08:21:57;12.55;;;4.05;;
5827;SDS011;42583;50.240;8.444;2024-01-30T08:36:57;9.88;;;4.03;;
5827;SDS011;42583;50.240;8.444;2024-01-30T08:51:58;6.85;;;3.40;;
5827;SDS011;42583;50.240;8.444;2024-01-30T09:06:58;6.35;;;3.30;;
5827;SDS011;42583;50.240;8.444;2024-01-30T09:21:59;8.63;;;3.20;;
5827;SDS011;42583;50.240;8.444;2024-01-30T09:36:59;8.55;;;3.60;;
5827;SDS011;42583;50.240;8.444;2024-01-30T09:52:01;7.13;;;3.42;;
5827;SDS011;42583;50.240;8.444;2024-01-30T10:07:02;11.00;;;3.22;;
5827;SDS011;42583;50.240;8.444;2024-01-30T10:22:03;6.93;;;3.20;;
5827;SDS011;42583;50.240;8.444;2024-01-30T10:37:09;9.90;;;3.88;;
5827;SDS011;42583;50.240;8.444;2024-01-30T10:52:17;8.30;;;3.63;;
5827;SDS011;42583;50.240;8.444;2024-01-30T11:07:19;9.70;;;4.47;;
5827;SDS011;42583;50.240;8.444;2024-01-30T11:22:25;10.35;;;4.88;;
5827;SDS011;42583;50.240;8.444;2024-01-30T11:37:25;9.38;;;4.40;;
5827;SDS011;42583;50.240;8.444;2024-01-30T11:52:27;9.23;;;4.45;;
5827;SDS011;42583;50.240;8.444;2024-01-30T12:07:28;9.25;;;4.13;;
5827;SDS011;42583;50.240;8.444;2024-01-30T12:22:29;9.63;;;4.15;;
5827;SDS011;42583;50.240;8.444;2024-01-30T12:37:30;9.23;;;4.25;;
5827;SDS011;42583;50.240;8.444;2024-01-30T12:52:31;10.15;;;4.50;;
5827;SDS011;42583;50.240;8.444;2024-01-30T13:07:31;11.68;;;4.70;;
5827;SDS011;42583;50.240;8.444;2024-01-30T13:22:32;10.77;;;4.80;;
5827;SDS011;42583;50.240;8.444;2024-01-30T13:37:32;12.73;;;4.82;;
5827;SDS011;42583;50.240;8.444;2024-01-30T13:52:33;9.90;;;4.22;;
5827;SDS011;42583;50.240;8.444;2024-01-30T14:07:35;9.80;;;5.00;;
5827;SDS011;42583;50.240;8.444;2024-01-30T14:22:37;10.82;;;5.38;;
5827;SDS011;42583;50.240;8.444;2024-01-30T14:37:38;14.35;;;5.45;;
5827;SDS011;42583;50.240;8.444;2024-01-30T14:52:39;10.48;;;5.47;;
5827;SDS011;42583;50.240;8.444;2024-01-30T15:07:40;11.88;;;5.35;;
5827;SDS011;42583;50.240;8.444;2024-01-30T15:22:41;11.40;;;5.85;;
5827;SDS011;42583;50.240;8.444;2024-01-30T15:37:42;15.55;;;6.38;;
5827;SDS011;42583;50.240;8.444;2024-01-30T15:52:42;14.95;;;6.32;;
5827;SDS011;42583;50.240;8.444;2024-01-30T16:07:43;14.80;;;6.63;;
5827;SDS011;42583;50.240;8.444;2024-01-30T16:22:43;14.25;;;7.15;;
5827;SDS011;42583;50.240;8.444;2024-01-30T16:37:44;16.00;;;6.13;;
5827;SDS011;42583;50.240;8.444;2024-01-30T16:52:45;11.68;;;5.38;;
5827;SDS011;42583;50.240;8.444;2024-01-30T17:07:45;12.18;;;5.60;;
5827;SDS011;42583;50.240;8.444;2024-01-30T17:22:46;16.33;;;6.03;;
5827;SDS011;42583;50.240;8.444;2024-01-30T17:37:46;12.70;;;5.82;;
5827;SDS011;42583;50.240;8.444;2024-01-30T17:52:47;18.70;;;6.45;;
5827;SDS011;42583;50.240;8.444;2024-01-30T18:07:48;16.27;;;6.97;;
5827;SDS011;42583;50.240;8.444;2024-01-30T18:22:49;17.35;;;8.18;;
5827;SDS011;42583;50.240;8.444;2024-01-30T18:37:50;14.38;;;7.30;;
5827;SDS011;42583;50.240;8.444;2024-01-30T18:52:51;15.13;;;8.10;;
5827;SDS011;42583;50.240;8.444;2024-01-30T19:07:52;18.20;;;8.82;;
5827;SDS011;42583;50.240;8.444;2024-01-30T19:22:53;21.27;;;9.02;;
5827;SDS011;42583;50.240;8.444;2024-01-30T19:37:54;19.20;;;9.20;;
5827;SDS011;42583;50.240;8.444;2024-01-30T19:52:54;17.50;;;9.27;;
5827;SDS011;42583;50.240;8.444;2024-01-30T20:07:55;20.40;;;9.80;;
5827;SDS011;42583;50.240;8.444;2024-01-30T20:22:56;29.05;;;10.20;;
5827;SDS011;42583;50.240;8.444;2024-01-30T20:37:56;25.80;;;10.45;;
5827;SDS011;42583;50.240;8.444;2024-01-30T20:52:57;24.70;;;10.40;;
5827;SDS011;42583;50.240;8.444;2024-01-30T21:07:57;19.95;;;10.57;;
5827;SDS011;42583;50.240;8.444;2024-01-30T21:22:58;32.40;;;11.43;;
5827;SDS011;42583;50.240;8.444;2024-01-30T21:37:59;191.70;;;12.73;;
5827;SDS011;42583;50.240;8.444;2024-01-30T21:52:59;177.05;;;13.43;;
5827;SDS011;42583;50.240;8.444;2024-01-30T22:08:00;14.10;;;8.77;;
5827;SDS011;42583;50.240;8.444;2024-01-30T22:23:00;14.82;;;7.38;;
5827;SDS011;42583;50.240;8.444;2024-01-30T22:38:01;16.20;;;7.65;;
5827;SDS011;42583;50.240;8.444;2024-01-30T22:53:02;17.27;;;7.88;;
5827;SDS011;42583;50.240;8.444;2024-01-30T23:08:03;11.80;;;5.75;;
5827;SDS011;42583;50.240;8.444;2024-01-30T23:23:06;15.13;;;5.88;;
5827;SDS011;42583;50.240;8.444;2024-01-30T23:38:08;11.55;;;4.82;;
5827;SDS011;42583;50.240;8.444;2024-01-30T23:53:08;14.45;;;5.50;;
